sensor_id;sensor_type;location;lat;lon;timestamp;P1;durP1;ratioP1;P2;durP2;ratioP2
28003;SDS011;15330;51.234;6.754;2023-02-01T00:00:13;27.23;;;11.20;;
28003;SDS011;15330;51.234;6.754;2023-02-01T00:02:38;27.23;;;11.85;;
28003;SDS011;15330;51.234;6.754;2023-02-01T00:05:06;28.17;;;11.88;;
28003;SDS011;15330;51.234;6.754;2023-02-01T00:07:33;32.92;;;13.73;;
28003;SDS011;15330;51.234;6.754;2023-02-01T00:09:58;30.85;;;13.93;;
28003;SDS011;15330;51.234;6.754;2023-02-01T00:12:24;39.00;;;14.82;;
28003;SDS011;15330;51.234;6.754;2023-02-01T00:14:49;31.90;;;14.60;;
28003;SDS011;15330;51.234;6.754;2023-02-01T00:17:14;37.72;;;15.77;;
28003;SDS011;15330;51.234;6.754;2023-02-01T00:19:40;27.13;;;14.85;;
28003;SDS011;15330;51.234;6.754;2023-02-01T00:22:05;40.33;;;15.73;;
28003;SDS011;15330;51.234;6.754;2023-02-01T00:24:31;37.25;;;15.60;;
28003;SDS011;15330;51.234;6.754;2023-02-01T00:26:56;39.90;;;16.60;;
28003;SDS011;15330;51.234;6.754;2023-02-01T00:29:21;40.00;;;16.42;;
28003;SDS011;15330;51.234;6.754;2023-02-01T00:31:49;34.63;;;16.27;;
28003;SDS011;15330;51.234;6.754;2023-02-01T00:34:16;39.08;;;15.90;;
28003;SDS011;15330;51.234;6.754;2023-02-01T00:36:42;38.75;;;16.63;;
28003;SDS011;15330;51.234;6.754;2023-02-01T00:39:09;36.05;;;16.33;;
28003;SDS011;15330;51.234;6.754;2023-02-01T00:41:34;41.28;;;18.08;;
28003;SDS011;15330;51.234;6.754;2023-02-01T00:44:00;39.10;;;16.17;;
28003;SDS011;15330;51.234;6.754;2023-02-01T00:46:26;30.52;;;13.57;;
28003;SDS011;15330;51.234;6.754;2023-02-01T00:48:52;35.20;;;14.75;;
28003;SDS011;15330;51.234;6.754;2023-02-01T00:51:18;34.63;;;15.05;;
28003;SDS011;15330;51.234;6.754;2023-02-01T00:53:46;41.03;;;14.43;;
28003;SDS011;15330;51.234;6.754;2023-02-01T00:56:11;32.80;;;12.88;;
28003;SDS011;15330;51.234;6.754;2023-02-01T00:58:37;33.47;;;12.10;;
28003;SDS011;15330;51.234;6.754;2023-02-01T01:01:05;30.33;;;12.98;;
28003;SDS011;15330;51.234;6.754;2023-02-01T01:03:33;32.67;;;12.68;;
28003;SDS011;15330;51.234;6.754;2023-02-01T01:06:02;34.13;;;11.30;;
28003;SDS011;15330;51.234;6.754;2023-02-01T01:08:30;28.20;;;10.65;;
28003;SDS011;15330;51.234;6.754;2023-02-01T01:10:55;30.00;;;11.75;;
28003;SDS011;15330;51.234;6.754;2023-02-01T01:13:21;30.20;;;9.88;;
28003;SDS011;15330;51.234;6.754;2023-02-01T01:15:46;33.67;;;9.75;;
28003;SDS011;15330;51.234;6.754;2023-02-01T01:18:11;29.13;;;10.73;;
28003;SDS011;15330;51.234;6.754;2023-02-01T01:20:38;32.95;;;10.02;;
28003;SDS011;15330;51.234;6.754;2023-02-01T01:23:05;33.42;;;9.68;;
28003;SDS011;15330;51.234;6.754;2023-02-01T01:25:31;34.92;;;9.48;;
28003;SDS011;15330;51.234;6.754;2023-02-01T01:27:57;23.77;;;8.93;;
28003;SDS011;15330;51.234;6.754;2023-02-01T01:30:23;23.15;;;7.95;;
28003;SDS011;15330;51.234;6.754;2023-02-01T01:32:49;24.45;;;7.57;;
28003;SDS011;15330;51.234;6.754;2023-02-01T01:35:14;24.63;;;6.10;;
28003;SDS011;15330;51.234;6.754;2023-02-01T01:37:40;22.80;;;6.40;;
28003;SDS011;15330;51.234;6.754;2023-02-01T01:40:06;27.10;;;6.65;;
28003;SDS011;15330;51.234;6.754;2023-02-01T01:42:41;21.17;;;5.78;;
28003;SDS011;15330;51.234;6.754;2023-02-01T01:45:20;26.38;;;6.13;;
28003;SDS011;15330;51.234;6.754;2023-02-01T01:47:52;21.35;;;5.75;;
28003;SDS011;15330;51.234;6.754;2023-02-01T01:50:20;19.05;;;6.05;;
28003;SDS011;15330;51.234;6.754;2023-02-01T01:52:52;20.33;;;5.20;;
28003;SDS011;15330;51.234;6.754;2023-02-01T01:55:20;22.38;;;5.40;;
28003;SDS011;15330;51.234;6.754;2023-02-01T01:57:52;20.23;;;6.43;;
28003;SDS011;15330;51.234;6.754;2023-02-01T02:00:22;20.50;;;5.78;;
28003;SDS011;15330;51.234;6.754;2023-02-01T02:02:50;19.30;;;5.03;;
28003;SDS011;15330;51.234;6.754;2023-02-01T02:05:19;19.80;;;5.07;;
28003;SDS011;15330;51.234;6.754;2023-02-01T02:07:46;23.30;;;5.22;;
28003;SDS011;15330;51.234;6.754;2023-02-01T02:10:14;20.75;;;5.10;;
28003;SDS011;15330;51.234;6.754;2023-02-01T02:12:40;27.58;;;6.55;;
28003;SDS011;15330;51.234;6.754;2023-02-01T02:15:08;20.30;;;5.30;;
28003;SDS011;15330;51.234;6.754;2023-02-01T02:17:36;23.42;;;5.07;;
28003;SDS011;15330;51.234;6.754;2023-02-01T02:20:15;19.90;;;4.82;;
28003;SDS011;15330;51.234;6.754;2023-02-01T02:23:05;27.08;;;5.63;;
28003;SDS011;15330;51.234;6.754;2023-02-01T02:40:13;26.63;;;4.80;;
28003;SDS011;15330;51.234;6.754;2023-02-01T02:42:50;28.73;;;5.15;;
28003;SDS011;15330;51.234;6.754;2023-02-01T02:45:49;25.92;;;4.93;;
28003;SDS011;15330;51.234;6.754;2023-02-01T02:48:43;21.02;;;4.97;;
28003;SDS011;15330;51.234;6.754;2023-02-01T02:51:14;25.40;;;4.72;;
28003;SDS011;15330;51.234;6.754;2023-02-01T02:54:05;16.50;;;4.45;;
28003;SDS011;15330;51.234;6.754;2023-02-01T02:56:56;20.42;;;4.22;;
28003;SDS011;15330;51.234;6.754;2023-02-01T02:59:43;22.05;;;4.63;;
28003;SDS011;15330;51.234;6.754;2023-02-01T03:02:28;25.75;;;5.15;;
28003;SDS011;15330;51.234;6.754;2023-02-01T03:05:14;23.02;;;5.45;;
28003;SDS011;15330;51.234;6.754;2023-02-01T03:07:49;24.83;;;5.15;;
28003;SDS011;15330;51.234;6.754;2023-02-01T03:26:43;26.95;;;5.75;;
28003;SDS011;15330;51.234;6.754;2023-02-01T03:29:19;28.00;;;5.45;;
28003;SDS011;15330;51.234;6.754;2023-02-01T03:31:50;24.92;;;5.80;;
28003;SDS011;15330;51.234;6.754;2023-02-01T03:34:15;29.17;;;5.22;;
28003;SDS011;15330;51.234;6.754;2023-02-01T03:36:50;26.58;;;4.88;;
28003;SDS011;15330;51.234;6.754;2023-02-01T03:39:25;19.73;;;5.07;;
28003;SDS011;15330;51.234;6.754;2023-02-01T03:41:56;21.15;;;5.05;;
28003;SDS011;15330;51.234;6.754;2023-02-01T03:44:28;35.08;;;5.53;;
28003;SDS011;15330;51.234;6.754;2023-02-01T03:46:58;24.92;;;5.22;;
28003;SDS011;15330;51.234;6.754;2023-02-01T03:49:29;27.20;;;5.40;;
28003;SDS011;15330;51.234;6.754;2023-02-01T03:51:59;19.30;;;4.55;;
28003;SDS011;15330;51.234;6.754;2023-02-01T03:54:26;28.38;;;4.88;;
28003;SDS011;15330;51.234;6.754;2023-02-01T03:56:53;24.73;;;5.07;;
28003;SDS011;15330;51.234;6.754;2023-02-01T03:59:22;24.33;;;4.75;;
28003;SDS011;15330;51.234;6.754;2023-02-01T04:01:48;14.63;;;3.95;;
28003;SDS011;15330;51.234;6.754;2023-02-01T04:04:14;24.33;;;5.55;;
28003;SDS011;15330;51.234;6.754;2023-02-01T04:06:45;23.25;;;5.00;;
28003;SDS011;15330;51.234;6.754;2023-02-01T04:09:11;34.60;;;5.68;;
28003;SDS011;15330;51.234;6.754;2023-02-01T04:11:37;22.95;;;5.75;;
28003;SDS011;15330;51.234;6.754;2023-02-01T04:14:02;30.27;;;5.65;;
28003;SDS011;15330;51.234;6.754;2023-02-01T04:16:29;22.00;;;4.30;;
28003;SDS011;15330;51.234;6.754;2023-02-01T04:18:56;24.10;;;5.63;;
28003;SDS011;15330;51.234;6.754;2023-02-01T04:21:22;19.17;;;4.60;;
28003;SDS011;15330;51.234;6.754;2023-02-01T04:23:48;18.50;;;4.43;;
28003;SDS011;15330;51.234;6.754;2023-02-01T04:26:13;25.27;;;4.70;;
28003;SDS011;15330;51.234;6.754;2023-02-01T04:28:38;22.92;;;5.43;;
28003;SDS011;15330;51.234;6.754;2023-02-01T04:31:04;29.10;;;5.18;;
28003;SDS011;15330;51.234;6.754;2023-02-01T04:33:29;27.45;;;5.57;;
28003;SDS011;15330;51.234;6.754;2023-02-01T04:35:54;27.00;;;4.53;;
28003;SDS011;15330;51.234;6.754;2023-02-01T04:38:20;25.40;;;4.03;;
28003;SDS011;15330;51.234;6.754;2023-02-01T04:40:47;26.95;;;5.07;;
28003;SDS011;15330;51.234;6.754;2023-02-01T04:43:13;30.77;;;5.80;;
28003;SDS011;15330;51.234;6.754;2023-02-01T04:45:38;23.45;;;5.22;;
28003;SDS011;15330;51.234;6.754;2023-02-01T04:48:03;25.20;;;4.85;;
28003;SDS011;15330;51.234;6.754;2023-02-01T04:50:29;28.77;;;5.15;;
28003;SDS011;15330;51.234;6.754;2023-02-01T04:52:54;27.67;;;5.13;;
28003;SDS011;15330;51.234;6.754;2023-02-01T04:55:20;31.92;;;6.32;;
28003;SDS011;15330;51.234;6.754;2023-02-01T04:57:45;39.42;;;8.52;;
28003;SDS011;15330;51.234;6.754;2023-02-01T05:00:11;34.92;;;6.88;;
28003;SDS011;15330;51.234;6.754;2023-02-01T05:02:38;25.80;;;5.45;;
28003;SDS011;15330;51.234;6.754;2023-02-01T05:05:03;22.42;;;4.68;;
28003;SDS011;15330;51.234;6.754;2023-02-01T05:07:29;20.25;;;5.07;;
28003;SDS011;15330;51.234;6.754;2023-02-01T05:09:55;31.95;;;6.60;;
28003;SDS011;15330;51.234;6.754;2023-02-01T05:12:20;32.92;;;5.45;;
28003;SDS011;15330;51.234;6.754;2023-02-01T05:15:05;30.58;;;5.55;;
28003;SDS011;15330;51.234;6.754;2023-02-01T05:17:31;31.90;;;5.38;;
28003;SDS011;15330;51.234;6.754;2023-02-01T05:19:56;23.30;;;5.47;;
28003;SDS011;15330;51.234;6.754;2023-02-01T05:22:22;22.73;;;4.70;;
28003;SDS011;15330;51.234;6.754;2023-02-01T05:24:47;22.67;;;5.32;;
28003;SDS011;15330;51.234;6.754;2023-02-01T05:27:13;24.27;;;5.25;;
28003;SDS011;15330;51.234;6.754;2023-02-01T05:29:38;38.08;;;7.43;;
28003;SDS011;15330;51.234;6.754;2023-02-01T05:32:03;35.55;;;5.72;;
28003;SDS011;15330;51.234;6.754;2023-02-01T05:34:29;27.23;;;4.88;;
28003;SDS011;15330;51.234;6.754;2023-02-01T05:36:54;25.33;;;5.72;;
28003;SDS011;15330;51.234;6.754;2023-02-01T05:39:20;24.60;;;4.60;;
28003;SDS011;15330;51.234;6.754;2023-02-01T05:41:45;24.50;;;5.93;;
28003;SDS011;15330;51.234;6.754;2023-02-01T05:44:11;45.60;;;9.85;;
28003;SDS011;15330;51.234;6.754;2023-02-01T05:46:36;32.30;;;7.60;;
28003;SDS011;15330;51.234;6.754;2023-02-01T05:49:02;31.73;;;6.22;;
28003;SDS011;15330;51.234;6.754;2023-02-01T05:51:28;29.58;;;5.50;;
28003;SDS011;15330;51.234;6.754;2023-02-01T05:53:54;26.90;;;6.63;;
28003;SDS011;15330;51.234;6.754;2023-02-01T05:56:19;26.95;;;6.70;;
28003;SDS011;15330;51.234;6.754;2023-02-01T05:58:45;25.63;;;5.47;;
28003;SDS011;15330;51.234;6.754;2023-02-01T06:01:10;26.45;;;6.20;;
28003;SDS011;15330;51.234;6.754;2023-02-01T06:03:35;34.67;;;8.85;;
28003;SDS011;15330;51.234;6.754;2023-02-01T06:06:01;41.35;;;10.88;;
28003;SDS011;15330;51.234;6.754;2023-02-01T06:17:45;30.73;;;4.90;;
28003;SDS011;15330;51.234;6.754;2023-02-01T06:20:12;32.67;;;5.30;;
28003;SDS011;15330;51.234;6.754;2023-02-01T06:22:39;27.38;;;5.10;;
28003;SDS011;15330;51.234;6.754;2023-02-01T06:25:05;30.38;;;6.22;;
28003;SDS011;15330;51.234;6.754;2023-02-01T06:27:32;31.25;;;5.35;;
28003;SDS011;15330;51.234;6.754;2023-02-01T06:29:58;24.52;;;4.78;;
28003;SDS011;15330;51.234;6.754;2023-02-01T06:32:23;35.15;;;7.45;;
28003;SDS011;15330;51.234;6.754;2023-02-01T06:34:49;33.28;;;5.90;;
28003;SDS011;15330;51.234;6.754;2023-02-01T06:37:14;27.92;;;5.30;;
28003;SDS011;15330;51.234;6.754;2023-02-01T06:39:40;41.95;;;8.43;;
28003;SDS011;15330;51.234;6.754;2023-02-01T06:42:06;27.77;;;5.70;;
28003;SDS011;15330;51.234;6.754;2023-02-01T06:44:31;28.70;;;5.60;;
28003;SDS011;15330;51.234;6.754;2023-02-01T06:46:57;27.08;;;5.70;;
28003;SDS011;15330;51.234;6.754;2023-02-01T06:49:22;23.83;;;4.75;;
28003;SDS011;15330;51.234;6.754;2023-02-01T06:51:47;31.42;;;5.55;;
28003;SDS011;15330;51.234;6.754;2023-02-01T06:54:13;29.35;;;5.03;;
28003;SDS011;15330;51.234;6.754;2023-02-01T06:56:38;29.92;;;5.40;;
28003;SDS011;15330;51.234;6.754;2023-02-01T06:59:04;23.55;;;5.65;;
28003;SDS011;15330;51.234;6.754;2023-02-01T07:01:30;37.40;;;9.20;;
28003;SDS011;15330;51.234;6.754;2023-02-01T07:03:56;26.20;;;5.10;;
28003;SDS011;15330;51.234;6.754;2023-02-01T07:06:21;26.88;;;4.68;;
28003;SDS011;15330;51.234;6.754;2023-02-01T07:08:47;28.42;;;5.18;;
28003;SDS011;15330;51.234;6.754;2023-02-01T07:11:13;31.23;;;5.88;;
28003;SDS011;15330;51.234;6.754;2023-02-01T07:13:39;32.10;;;5.50;;
28003;SDS011;15330;51.234;6.754;2023-02-01T07:16:06;34.70;;;5.60;;
28003;SDS011;15330;51.234;6.754;2023-02-01T07:18:34;32.53;;;5.47;;
28003;SDS011;15330;51.234;6.754;2023-02-01T07:21:00;22.40;;;5.30;;
28003;SDS011;15330;51.234;6.754;2023-02-01T07:23:26;31.95;;;6.65;;
28003;SDS011;15330;51.234;6.754;2023-02-01T07:25:55;32.30;;;5.95;;
28003;SDS011;15330;51.234;6.754;2023-02-01T07:28:23;32.10;;;6.70;;
28003;SDS011;15330;51.234;6.754;2023-02-01T07:30:48;37.05;;;6.53;;
28003;SDS011;15330;51.234;6.754;2023-02-01T07:33:22;27.35;;;6.03;;
28003;SDS011;15330;51.234;6.754;2023-02-01T07:35:49;23.20;;;4.90;;
28003;SDS011;15330;51.234;6.754;2023-02-01T07:38:15;29.00;;;6.25;;
28003;SDS011;15330;51.234;6.754;2023-02-01T07:40:41;32.08;;;4.80;;
28003;SDS011;15330;51.234;6.754;2023-02-01T07:43:09;26.42;;;6.03;;
28003;SDS011;15330;51.234;6.754;2023-02-01T07:45:37;30.02;;;5.05;;
28003;SDS011;15330;51.234;6.754;2023-02-01T07:48:03;30.85;;;5.90;;
28003;SDS011;15330;51.234;6.754;2023-02-01T07:50:32;30.67;;;5.95;;
28003;SDS011;15330;51.234;6.754;2023-02-01T07:53:06;30.35;;;5.60;;
28003;SDS011;15330;51.234;6.754;2023-02-01T07:55:31;25.85;;;4.30;;
28003;SDS011;15330;51.234;6.754;2023-02-01T07:58:02;30.35;;;6.05;;
28003;SDS011;15330;51.234;6.754;2023-02-01T08:00:29;30.58;;;6.97;;
28003;SDS011;15330;51.234;6.754;2023-02-01T08:03:13;28.58;;;5.32;;
28003;SDS011;15330;51.234;6.754;2023-02-01T08:05:41;27.98;;;5.75;;
28003;SDS011;15330;51.234;6.754;2023-02-01T08:08:10;25.40;;;4.63;;
28003;SDS011;15330;51.234;6.754;2023-02-01T08:10:40;35.10;;;6.53;;
28003;SDS011;15330;51.234;6.754;2023-02-01T08:13:12;36.08;;;5.82;;
28003;SDS011;15330;51.234;6.754;2023-02-01T08:15:37;24.88;;;4.82;;
28003;SDS011;15330;51.234;6.754;2023-02-01T08:18:02;51.95;;;14.35;;
28003;SDS011;15330;51.234;6.754;2023-02-01T08:20:28;37.67;;;10.27;;
28003;SDS011;15330;51.234;6.754;2023-02-01T08:22:53;43.38;;;10.10;;
28003;SDS011;15330;51.234;6.754;2023-02-01T08:25:19;30.50;;;7.88;;
28003;SDS011;15330;51.234;6.754;2023-02-01T08:27:48;29.13;;;5.03;;
28003;SDS011;15330;51.234;6.754;2023-02-01T08:30:14;33.17;;;7.35;;
28003;SDS011;15330;51.234;6.754;2023-02-01T08:32:39;28.80;;;6.93;;
28003;SDS011;15330;51.234;6.754;2023-02-01T08:35:05;26.35;;;6.43;;
28003;SDS011;15330;51.234;6.754;2023-02-01T08:37:37;29.35;;;5.78;;
28003;SDS011;15330;51.234;6.754;2023-02-01T08:40:03;21.08;;;5.53;;
28003;SDS011;15330;51.234;6.754;2023-02-01T08:42:30;28.92;;;6.15;;
28003;SDS011;15330;51.234;6.754;2023-02-01T08:47:39;30.17;;;6.63;;
28003;SDS011;15330;51.234;6.754;2023-02-01T08:50:05;33.10;;;7.93;;
28003;SDS011;15330;51.234;6.754;2023-02-01T08:52:34;31.27;;;5.13;;
28003;SDS011;15330;51.234;6.754;2023-02-01T08:54:59;36.05;;;7.25;;
28003;SDS011;15330;51.234;6.754;2023-02-01T08:57:25;29.10;;;6.38;;
28003;SDS011;15330;51.234;6.754;2023-02-01T08:59:50;34.53;;;6.03;;
28003;SDS011;15330;51.234;6.754;2023-02-01T09:02:18;32.25;;;6.72;;
28003;SDS011;15330;51.234;6.754;2023-02-01T09:04:44;32.50;;;6.00;;
28003;SDS011;15330;51.234;6.754;2023-02-01T09:07:15;28.88;;;5.80;;
28003;SDS011;15330;51.234;6.754;2023-02-01T09:09:41;37.50;;;9.50;;
28003;SDS011;15330;51.234;6.754;2023-02-01T09:12:07;26.25;;;5.65;;
28003;SDS011;15330;51.234;6.754;2023-02-01T09:14:41;22.35;;;4.82;;
28003;SDS011;15330;51.234;6.754;2023-02-01T09:17:09;30.95;;;6.07;;
28003;SDS011;15330;51.234;6.754;2023-02-01T09:19:35;27.52;;;6.05;;
28003;SDS011;15330;51.234;6.754;2023-02-01T09:22:00;26.55;;;6.97;;
28003;SDS011;15330;51.234;6.754;2023-02-01T09:24:28;27.67;;;5.75;;
28003;SDS011;15330;51.234;6.754;2023-02-01T09:26:54;25.60;;;5.95;;
28003;SDS011;15330;51.234;6.754;2023-02-01T09:29:31;29.38;;;7.15;;
28003;SDS011;15330;51.234;6.754;2023-02-01T09:31:59;23.13;;;6.22;;
28003;SDS011;15330;51.234;6.754;2023-02-01T09:34:27;27.65;;;5.40;;
28003;SDS011;15330;51.234;6.754;2023-02-01T09:36:56;35.17;;;5.63;;
28003;SDS011;15330;51.234;6.754;2023-02-01T09:39:27;24.40;;;5.78;;
28003;SDS011;15330;51.234;6.754;2023-02-01T09:41:59;35.92;;;6.38;;
28003;SDS011;15330;51.234;6.754;2023-02-01T09:47:35;30.63;;;5.05;;
28003;SDS011;15330;51.234;6.754;2023-02-01T09:52:36;30.75;;;6.00;;
28003;SDS011;15330;51.234;6.754;2023-02-01T09:55:30;36.83;;;6.70;;
28003;SDS011;15330;51.234;6.754;2023-02-01T10:01:03;18.20;;;5.18;;
28003;SDS011;15330;51.234;6.754;2023-02-01T10:03:35;28.08;;;5.25;;
28003;SDS011;15330;51.234;6.754;2023-02-01T10:08:39;33.78;;;7.10;;
28003;SDS011;15330;51.234;6.754;2023-02-01T10:11:27;28.02;;;6.25;;
28003;SDS011;15330;51.234;6.754;2023-02-01T10:22:46;36.38;;;6.53;;
28003;SDS011;15330;51.234;6.754;2023-02-01T10:28:11;20.05;;;4.97;;
28003;SDS011;15330;51.234;6.754;2023-02-01T10:30:42;30.42;;;5.88;;
28003;SDS011;15330;51.234;6.754;2023-02-01T10:33:16;27.90;;;7.50;;
28003;SDS011;15330;51.234;6.754;2023-02-01T10:35:44;27.42;;;5.38;;
28003;SDS011;15330;51.234;6.754;2023-02-01T10:41:11;26.95;;;6.30;;
28003;SDS011;15330;51.234;6.754;2023-02-01T10:43:39;23.70;;;5.25;;
28003;SDS011;15330;51.234;6.754;2023-02-01T10:46:06;35.28;;;5.30;;
28003;SDS011;15330;51.234;6.754;2023-02-01T10:48:32;24.63;;;5.28;;
28003;SDS011;15330;51.234;6.754;2023-02-01T10:50:59;19.55;;;4.60;;
28003;SDS011;15330;51.234;6.754;2023-02-01T10:53:34;22.83;;;4.35;;
28003;SDS011;15330;51.234;6.754;2023-02-01T10:56:11;33.58;;;5.38;;
28003;SDS011;15330;51.234;6.754;2023-02-01T10:58:47;21.75;;;4.60;;
28003;SDS011;15330;51.234;6.754;2023-02-01T11:01:24;32.88;;;4.38;;
28003;SDS011;15330;51.234;6.754;2023-02-01T11:04:15;19.67;;;5.03;;
28003;SDS011;15330;51.234;6.754;2023-02-01T11:06:44;20.35;;;5.05;;
28003;SDS011;15330;51.234;6.754;2023-02-01T11:09:16;19.20;;;5.65;;
28003;SDS011;15330;51.234;6.754;2023-02-01T11:14:17;23.10;;;5.72;;
28003;SDS011;15330;51.234;6.754;2023-02-01T11:19:46;21.35;;;4.70;;
28003;SDS011;15330;51.234;6.754;2023-02-01T11:22:20;29.90;;;6.97;;
28003;SDS011;15330;51.234;6.754;2023-02-01T11:24:46;25.40;;;5.93;;
28003;SDS011;15330;51.234;6.754;2023-02-01T11:27:16;23.98;;;4.88;;
28003;SDS011;15330;51.234;6.754;2023-02-01T11:29:45;23.83;;;4.38;;
28003;SDS011;15330;51.234;6.754;2023-02-01T11:32:15;33.70;;;5.47;;
28003;SDS011;15330;51.234;6.754;2023-02-01T11:34:46;38.40;;;5.82;;
28003;SDS011;15330;51.234;6.754;2023-02-01T11:40:03;25.40;;;5.95;;
28003;SDS011;15330;51.234;6.754;2023-02-01T11:47:59;30.23;;;8.88;;
28003;SDS011;15330;51.234;6.754;2023-02-01T11:56:36;32.50;;;5.65;;
28003;SDS011;15330;51.234;6.754;2023-02-01T12:07:05;26.15;;;5.28;;
28003;SDS011;15330;51.234;6.754;2023-02-01T12:17:15;22.13;;;5.95;;
28003;SDS011;15330;51.234;6.754;2023-02-01T12:23:04;20.50;;;6.37;;
28003;SDS011;15330;51.234;6.754;2023-02-01T12:36:24;16.77;;;5.53;;
28003;SDS011;15330;51.234;6.754;2023-02-01T12:42:12;21.42;;;5.95;;
28003;SDS011;15330;51.234;6.754;2023-02-01T12:47:51;16.27;;;5.50;;
28003;SDS011;15330;51.234;6.754;2023-02-01T12:50:25;19.10;;;5.88;;
28003;SDS011;15330;51.234;6.754;2023-02-01T12:52:55;24.58;;;5.38;;
28003;SDS011;15330;51.234;6.754;2023-02-01T12:55:44;23.17;;;5.57;;
28003;SDS011;15330;51.234;6.754;2023-02-01T13:00:51;19.73;;;4.63;;
28003;SDS011;15330;51.234;6.754;2023-02-01T13:03:34;24.05;;;4.45;;
28003;SDS011;15330;51.234;6.754;2023-02-01T13:08:46;26.02;;;5.30;;
28003;SDS011;15330;51.234;6.754;2023-02-01T13:11:20;26.98;;;4.95;;
28003;SDS011;15330;51.234;6.754;2023-02-01T13:16:46;17.75;;;4.57;;
28003;SDS011;15330;51.234;6.754;2023-02-01T13:19:27;33.45;;;6.13;;
28003;SDS011;15330;51.234;6.754;2023-02-01T13:22:01;29.55;;;8.82;;
28003;SDS011;15330;51.234;6.754;2023-02-01T13:24:43;40.30;;;7.63;;
28003;SDS011;15330;51.234;6.754;2023-02-01T13:27:12;19.27;;;5.07;;
28003;SDS011;15330;51.234;6.754;2023-02-01T13:29:42;26.23;;;4.47;;
28003;SDS011;15330;51.234;6.754;2023-02-01T13:41:14;19.50;;;5.30;;
28003;SDS011;15330;51.234;6.754;2023-02-01T13:43:52;21.30;;;5.18;;
28003;SDS011;15330;51.234;6.754;2023-02-01T13:46:20;21.65;;;5.38;;
28003;SDS011;15330;51.234;6.754;2023-02-01T13:48:48;16.05;;;4.50;;
28003;SDS011;15330;51.234;6.754;2023-02-01T13:51:18;19.55;;;4.60;;
28003;SDS011;15330;51.234;6.754;2023-02-01T13:53:58;22.20;;;4.50;;
28003;SDS011;15330;51.234;6.754;2023-02-01T13:56:23;21.10;;;3.63;;
28003;SDS011;15330;51.234;6.754;2023-02-01T13:58:51;20.73;;;3.50;;
28003;SDS011;15330;51.234;6.754;2023-02-01T14:06:37;19.48;;;4.43;;
28003;SDS011;15330;51.234;6.754;2023-02-01T14:19:09;25.48;;;4.47;;
28003;SDS011;15330;51.234;6.754;2023-02-01T14:21:51;23.02;;;3.88;;
28003;SDS011;15330;51.234;6.754;2023-02-01T14:24:25;15.65;;;3.17;;
28003;SDS011;15330;51.234;6.754;2023-02-01T14:26:52;18.70;;;3.75;;
28003;SDS011;15330;51.234;6.754;2023-02-01T14:29:21;23.02;;;4.85;;
28003;SDS011;15330;51.234;6.754;2023-02-01T14:31:52;15.98;;;3.92;;
28003;SDS011;15330;51.234;6.754;2023-02-01T14:37:34;20.95;;;4.60;;
28003;SDS011;15330;51.234;6.754;2023-02-01T14:40:15;14.73;;;3.50;;
28003;SDS011;15330;51.234;6.754;2023-02-01T14:42:45;17.45;;;3.58;;
28003;SDS011;15330;51.234;6.754;2023-02-01T14:47:44;13.60;;;3.63;;
28003;SDS011;15330;51.234;6.754;2023-02-01T15:01:05;14.43;;;3.30;;
28003;SDS011;15330;51.234;6.754;2023-02-01T15:06:20;18.80;;;3.72;;
28003;SDS011;15330;51.234;6.754;2023-02-01T15:08:52;17.57;;;4.00;;
28003;SDS011;15330;51.234;6.754;2023-02-01T15:11:20;20.02;;;3.40;;
28003;SDS011;15330;51.234;6.754;2023-02-01T15:13:50;19.48;;;3.83;;
28003;SDS011;15330;51.234;6.754;2023-02-01T15:16:18;19.77;;;4.05;;
28003;SDS011;15330;51.234;6.754;2023-02-01T15:18:45;17.63;;;3.63;;
28003;SDS011;15330;51.234;6.754;2023-02-01T15:21:23;20.70;;;4.43;;
28003;SDS011;15330;51.234;6.754;2023-02-01T15:23:50;23.20;;;3.95;;
28003;SDS011;15330;51.234;6.754;2023-02-01T15:26:27;16.88;;;4.10;;
28003;SDS011;15330;51.234;6.754;2023-02-01T15:28:55;19.02;;;3.35;;
28003;SDS011;15330;51.234;6.754;2023-02-01T15:34:18;23.25;;;4.45;;
28003;SDS011;15330;51.234;6.754;2023-02-01T15:36:44;18.10;;;4.53;;
28003;SDS011;15330;51.234;6.754;2023-02-01T15:39:14;17.95;;;3.80;;
28003;SDS011;15330;51.234;6.754;2023-02-01T15:44:48;12.95;;;3.25;;
28003;SDS011;15330;51.234;6.754;2023-02-01T15:47:23;23.08;;;3.38;;
28003;SDS011;15330;51.234;6.754;2023-02-01T15:49:52;21.25;;;4.68;;
28003;SDS011;15330;51.234;6.754;2023-02-01T15:52:40;20.08;;;4.38;;
28003;SDS011;15330;51.234;6.754;2023-02-01T15:57:49;16.40;;;3.20;;
28003;SDS011;15330;51.234;6.754;2023-02-01T16:00:26;18.45;;;4.22;;
28003;SDS011;15330;51.234;6.754;2023-02-01T16:02:59;22.63;;;4.53;;
28003;SDS011;15330;51.234;6.754;2023-02-01T16:05:35;29.05;;;5.43;;
28003;SDS011;15330;51.234;6.754;2023-02-01T16:08:14;19.35;;;3.70;;
28003;SDS011;15330;51.234;6.754;2023-02-01T16:10:42;26.25;;;4.45;;
28003;SDS011;15330;51.234;6.754;2023-02-01T16:13:10;33.28;;;7.78;;
28003;SDS011;15330;51.234;6.754;2023-02-01T16:15:36;19.13;;;3.92;;
28003;SDS011;15330;51.234;6.754;2023-02-01T16:18:02;20.35;;;4.00;;
28003;SDS011;15330;51.234;6.754;2023-02-01T16:20:27;22.02;;;3.92;;
28003;SDS011;15330;51.234;6.754;2023-02-01T16:22:54;23.70;;;5.10;;
28003;SDS011;15330;51.234;6.754;2023-02-01T16:25:19;21.88;;;3.72;;
28003;SDS011;15330;51.234;6.754;2023-02-01T16:27:45;26.92;;;5.40;;
28003;SDS011;15330;51.234;6.754;2023-02-01T16:30:10;22.73;;;4.40;;
28003;SDS011;15330;51.234;6.754;2023-02-01T16:32:36;14.70;;;3.40;;
28003;SDS011;15330;51.234;6.754;2023-02-01T16:35:10;24.13;;;4.10;;
28003;SDS011;15330;51.234;6.754;2023-02-01T16:37:44;20.70;;;4.10;;
28003;SDS011;15330;51.234;6.754;2023-02-01T16:40:13;25.50;;;4.13;;
28003;SDS011;15330;51.234;6.754;2023-02-01T16:42:39;13.57;;;3.60;;
28003;SDS011;15330;51.234;6.754;2023-02-01T16:45:05;22.98;;;4.35;;
28003;SDS011;15330;51.234;6.754;2023-02-01T16:47:32;22.58;;;4.22;;
28003;SDS011;15330;51.234;6.754;2023-02-01T16:49:58;21.45;;;4.45;;
28003;SDS011;15330;51.234;6.754;2023-02-01T16:52:25;23.23;;;3.63;;
28003;SDS011;15330;51.234;6.754;2023-02-01T16:54:51;21.70;;;4.88;;
28003;SDS011;15330;51.234;6.754;2023-02-01T16:57:18;17.33;;;3.53;;
28003;SDS011;15330;51.234;6.754;2023-02-01T16:59:47;23.85;;;6.10;;
28003;SDS011;15330;51.234;6.754;2023-02-01T17:02:13;25.67;;;6.15;;
28003;SDS011;15330;51.234;6.754;2023-02-01T17:04:41;24.90;;;5.25;;
28003;SDS011;15330;51.234;6.754;2023-02-01T17:07:06;25.27;;;4.60;;
28003;SDS011;15330;51.234;6.754;2023-02-01T17:09:39;26.05;;;4.70;;
28003;SDS011;15330;51.234;6.754;2023-02-01T17:12:04;26.70;;;5.30;;
28003;SDS011;15330;51.234;6.754;2023-02-01T17:14:30;24.38;;;5.00;;
28003;SDS011;15330;51.234;6.754;2023-02-01T17:17:00;29.67;;;4.93;;
28003;SDS011;15330;51.234;6.754;2023-02-01T17:19:26;27.67;;;5.95;;
28003;SDS011;15330;51.234;6.754;2023-02-01T17:21:53;21.15;;;4.10;;
28003;SDS011;15330;51.234;6.754;2023-02-01T17:24:21;19.45;;;4.15;;
28003;SDS011;15330;51.234;6.754;2023-02-01T17:26:49;25.83;;;4.68;;
28003;SDS011;15330;51.234;6.754;2023-02-01T17:29:16;18.85;;;4.47;;
28003;SDS011;15330;51.234;6.754;2023-02-01T17:31:43;24.27;;;4.97;;
28003;SDS011;15330;51.234;6.754;2023-02-01T17:34:11;24.00;;;4.95;;
28003;SDS011;15330;51.234;6.754;2023-02-01T17:36:39;19.20;;;4.22;;
28003;SDS011;15330;51.234;6.754;2023-02-01T17:39:05;22.40;;;4.72;;
28003;SDS011;15330;51.234;6.754;2023-02-01T17:41:31;26.73;;;5.32;;
28003;SDS011;15330;51.234;6.754;2023-02-01T17:43:56;20.55;;;4.93;;
28003;SDS011;15330;51.234;6.754;2023-02-01T17:46:22;28.63;;;4.63;;
28003;SDS011;15330;51.234;6.754;2023-02-01T17:48:51;26.15;;;5.93;;